sensor_id;sensor_type;location;lat;lon;timestamp;P1;durP1;ratioP1;P2;durP2;ratioP2
7773;SDS011;3931;42.260;23.116;2023-05-29T00:00:21;8.50;;;3.73;;
7773;SDS011;3931;42.260;23.116;2023-05-29T00:02:48;4.83;;;3.50;;
7773;SDS011;3931;42.260;23.116;2023-05-29T00:05:16;4.73;;;3.20;;
7773;SDS011;3931;42.260;23.116;2023-05-29T00:07:42;6.97;;;3.53;;
7773;SDS011;3931;42.260;23.116;2023-05-29T00:10:10;4.50;;;3.17;;
7773;SDS011;3931;42.260;23.116;2023-05-29T00:12:37;4.40;;;3.60;;
7773;SDS011;3931;42.260;23.116;2023-05-29T00:15:04;7.90;;;3.30;;
7773;SDS011;3931;42.260;23.116;2023-05-29T00:17:31;5.97;;;3.40;;
7773;SDS011;3931;42.260;23.116;2023-05-29T00:19:57;8.13;;;2.77;;
7773;SDS011;3931;42.260;23.116;2023-05-29T00:22:24;7.00;;;4.43;;
7773;SDS011;3931;42.260;23.116;2023-05-29T00:24:50;3.87;;;2.87;;
7773;SDS011;3931;42.260;23.116;2023-05-29T00:27:18;11.33;;;3.00;;
7773;SDS011;3931;42.260;23.116;2023-05-29T00:29:44;24.90;;;4.27;;
7773;SDS011;3931;42.260;23.116;2023-05-29T00:32:10;5.07;;;3.17;;
7773;SDS011;3931;42.260;23.116;2023-05-29T00:34:36;9.60;;;3.77;;
7773;SDS011;3931;42.260;23.116;2023-05-29T00:37:02;5.00;;;3.00;;
7773;SDS011;3931;42.260;23.116;2023-05-29T00:39:29;5.70;;;3.17;;
7773;SDS011;3931;42.260;23.116;2023-05-29T00:41:55;4.90;;;3.20;;
7773;SDS011;3931;42.260;23.116;2023-05-29T00:44:22;6.70;;;4.30;;
7773;SDS011;3931;42.260;23.116;2023-05-29T00:46:49;7.83;;;3.77;;
7773;SDS011;3931;42.260;23.116;2023-05-29T00:49:18;6.17;;;3.00;;
7773;SDS011;3931;42.260;23.116;2023-05-29T00:51:45;8.83;;;3.40;;
7773;SDS011;3931;42.260;23.116;2023-05-29T00:54:12;4.17;;;3.50;;
7773;SDS011;3931;42.260;23.116;2023-05-29T00:56:42;7.83;;;3.60;;
7773;SDS011;3931;42.260;23.116;2023-05-29T00:59:09;7.57;;;4.00;;
7773;SDS011;3931;42.260;23.116;2023-05-29T01:01:36;7.37;;;3.50;;
7773;SDS011;3931;42.260;23.116;2023-05-29T01:04:03;8.23;;;3.50;;
7773;SDS011;3931;42.260;23.116;2023-05-29T01:06:31;7.43;;;4.43;;
7773;SDS011;3931;42.260;23.116;2023-05-29T01:08:58;5.07;;;3.07;;
7773;SDS011;3931;42.260;23.116;2023-05-29T01:11:25;8.93;;;4.10;;
7773;SDS011;3931;42.260;23.116;2023-05-29T01:13:57;5.57;;;2.90;;
7773;SDS011;3931;42.260;23.116;2023-05-29T01:16:30;7.80;;;3.70;;
7773;SDS011;3931;42.260;23.116;2023-05-29T01:19:18;5.77;;;3.57;;
7773;SDS011;3931;42.260;23.116;2023-05-29T01:21:56;9.70;;;3.73;;
7773;SDS011;3931;42.260;23.116;2023-05-29T01:24:37;11.00;;;3.67;;
7773;SDS011;3931;42.260;23.116;2023-05-29T01:27:10;6.50;;;3.90;;
7773;SDS011;3931;42.260;23.116;2023-05-29T01:29:40;10.53;;;3.47;;
7773;SDS011;3931;42.260;23.116;2023-05-29T01:32:09;7.73;;;4.43;;
7773;SDS011;3931;42.260;23.116;2023-05-29T01:34:36;4.00;;;3.60;;
7773;SDS011;3931;42.260;23.116;2023-05-29T01:37:02;5.60;;;3.90;;
7773;SDS011;3931;42.260;23.116;2023-05-29T01:39:28;5.80;;;3.70;;
7773;SDS011;3931;42.260;23.116;2023-05-29T01:41:55;5.17;;;3.70;;
7773;SDS011;3931;42.260;23.116;2023-05-29T01:44:24;9.80;;;4.03;;
7773;SDS011;3931;42.260;23.116;2023-05-29T01:46:51;6.53;;;3.93;;
7773;SDS011;3931;42.260;23.116;2023-05-29T01:49:17;4.33;;;3.60;;
7773;SDS011;3931;42.260;23.116;2023-05-29T01:51:44;5.63;;;3.77;;
7773;SDS011;3931;42.260;23.116;2023-05-29T01:54:10;6.43;;;4.17;;
7773;SDS011;3931;42.260;23.116;2023-05-29T01:56:36;4.50;;;3.40;;
7773;SDS011;3931;42.260;23.116;2023-05-29T01:59:03;4.50;;;3.50;;
7773;SDS011;3931;42.260;23.116;2023-05-29T02:01:30;5.63;;;4.20;;
7773;SDS011;3931;42.260;23.116;2023-05-29T02:03:57;6.73;;;4.60;;
7773;SDS011;3931;42.260;23.116;2023-05-29T02:06:23;4.73;;;3.50;;
7773;SDS011;3931;42.260;23.116;2023-05-29T02:08:49;6.87;;;3.73;;
7773;SDS011;3931;42.260;23.116;2023-05-29T02:11:15;6.43;;;3.57;;
7773;SDS011;3931;42.260;23.116;2023-05-29T02:13:41;4.77;;;3.57;;
7773;SDS011;3931;42.260;23.116;2023-05-29T02:16:08;3.70;;;3.40;;
7773;SDS011;3931;42.260;23.116;2023-05-29T02:18:34;6.03;;;4.03;;
7773;SDS011;3931;42.260;23.116;2023-05-29T02:21:00;6.70;;;3.80;;
7773;SDS011;3931;42.260;23.116;2023-05-29T02:23:27;12.00;;;3.70;;
7773;SDS011;3931;42.260;23.116;2023-05-29T02:25:55;7.00;;;3.37;;
7773;SDS011;3931;42.260;23.116;2023-05-29T02:28:21;6.37;;;3.80;;
7773;SDS011;3931;42.260;23.116;2023-05-29T02:30:47;9.20;;;3.80;;
7773;SDS011;3931;42.260;23.116;2023-05-29T02:33:13;8.00;;;4.17;;
7773;SDS011;3931;42.260;23.116;2023-05-29T02:35:40;9.90;;;4.37;;
7773;SDS011;3931;42.260;23.116;2023-05-29T02:38:06;10.23;;;4.33;;
7773;SDS011;3931;42.260;23.116;2023-05-29T02:40:32;5.43;;;3.70;;
7773;SDS011;3931;42.260;23.116;2023-05-29T02:42:58;7.30;;;4.27;;
7773;SDS011;3931;42.260;23.116;2023-05-29T02:45:24;7.73;;;4.30;;
7773;SDS011;3931;42.260;23.116;2023-05-29T02:47:51;8.90;;;4.13;;
7773;SDS011;3931;42.260;23.116;2023-05-29T02:50:17;6.47;;;4.07;;
7773;SDS011;3931;42.260;23.116;2023-05-29T02:52:43;5.83;;;3.90;;
7773;SDS011;3931;42.260;23.116;2023-05-29T02:55:09;9.23;;;3.90;;
7773;SDS011;3931;42.260;23.116;2023-05-29T02:57:36;5.53;;;4.43;;
7773;SDS011;3931;42.260;23.116;2023-05-29T03:00:02;10.07;;;4.33;;
7773;SDS011;3931;42.260;23.116;2023-05-29T03:02:31;13.60;;;4.63;;
7773;SDS011;3931;42.260;23.116;2023-05-29T03:04:57;7.47;;;4.47;;
7773;SDS011;3931;42.260;23.116;2023-05-29T03:07:23;5.47;;;4.43;;
7773;SDS011;3931;42.260;23.116;2023-05-29T03:09:51;8.33;;;4.30;;
7773;SDS011;3931;42.260;23.116;2023-05-29T03:12:17;8.90;;;4.77;;
7773;SDS011;3931;42.260;23.116;2023-05-29T03:14:44;8.73;;;4.60;;
7773;SDS011;3931;42.260;23.116;2023-05-29T03:17:10;9.93;;;4.13;;
7773;SDS011;3931;42.260;23.116;2023-05-29T03:19:36;6.87;;;4.10;;
7773;SDS011;3931;42.260;23.116;2023-05-29T03:22:02;4.80;;;3.83;;
7773;SDS011;3931;42.260;23.116;2023-05-29T03:24:29;6.33;;;4.00;;
7773;SDS011;3931;42.260;23.116;2023-05-29T03:26:55;16.30;;;4.90;;
7773;SDS011;3931;42.260;23.116;2023-05-29T03:29:22;8.40;;;4.90;;
7773;SDS011;3931;42.260;23.116;2023-05-29T03:31:48;8.50;;;4.50;;
7773;SDS011;3931;42.260;23.116;2023-05-29T03:34:14;7.97;;;4.63;;
7773;SDS011;3931;42.260;23.116;2023-05-29T03:36:40;8.93;;;4.40;;
7773;SDS011;3931;42.260;23.116;2023-05-29T03:39:06;8.97;;;5.03;;
7773;SDS011;3931;42.260;23.116;2023-05-29T03:41:32;7.13;;;4.63;;
7773;SDS011;3931;42.260;23.116;2023-05-29T03:43:59;7.97;;;4.37;;
7773;SDS011;3931;42.260;23.116;2023-05-29T03:46:25;15.67;;;4.40;;
7773;SDS011;3931;42.260;23.116;2023-05-29T03:48:52;9.77;;;4.70;;
7773;SDS011;3931;42.260;23.116;2023-05-29T03:51:18;7.37;;;4.57;;
7773;SDS011;3931;42.260;23.116;2023-05-29T03:53:44;10.93;;;4.60;;
7773;SDS011;3931;42.260;23.116;2023-05-29T03:56:10;7.60;;;4.80;;
7773;SDS011;3931;42.260;23.116;2023-05-29T03:58:36;15.63;;;4.40;;
7773;SDS011;3931;42.260;23.116;2023-05-29T04:01:03;12.47;;;4.33;;
7773;SDS011;3931;42.260;23.116;2023-05-29T04:03:29;9.00;;;3.90;;
7773;SDS011;3931;42.260;23.116;2023-05-29T04:05:56;9.20;;;4.77;;
7773;SDS011;3931;42.260;23.116;2023-05-29T04:08:22;13.13;;;4.53;;
7773;SDS011;3931;42.260;23.116;2023-05-29T04:10:48;7.07;;;3.80;;
7773;SDS011;3931;42.260;23.116;2023-05-29T04:13:18;11.53;;;4.33;;
7773;SDS011;3931;42.260;23.116;2023-05-29T04:15:44;8.10;;;4.20;;
7773;SDS011;3931;42.260;23.116;2023-05-29T04:18:11;9.40;;;4.30;;
7773;SDS011;3931;42.260;23.116;2023-05-29T04:20:37;9.03;;;4.37;;
7773;SDS011;3931;42.260;23.116;2023-05-29T04:23:03;7.37;;;5.03;;
7773;SDS011;3931;42.260;23.116;2023-05-29T04:25:29;6.00;;;4.00;;
7773;SDS011;3931;42.260;23.116;2023-05-29T04:27:55;22.83;;;5.40;;
7773;SDS011;3931;42.260;23.116;2023-05-29T04:30:21;11.43;;;4.50;;
7773;SDS011;3931;42.260;23.116;2023-05-29T04:32:47;18.40;;;5.80;;
7773;SDS011;3931;42.260;23.116;2023-05-29T04:35:14;16.10;;;4.73;;
7773;SDS011;3931;42.260;23.116;2023-05-29T04:37:40;13.00;;;4.77;;
7773;SDS011;3931;42.260;23.116;2023-05-29T04:40:09;18.10;;;5.17;;
7773;SDS011;3931;42.260;23.116;2023-05-29T04:42:35;7.20;;;5.47;;
7773;SDS011;3931;42.260;23.116;2023-05-29T04:45:02;8.70;;;4.97;;
7773;SDS011;3931;42.260;23.116;2023-05-29T04:47:29;11.00;;;5.10;;
7773;SDS011;3931;42.260;23.116;2023-05-29T04:49:58;6.07;;;5.17;;
7773;SDS011;3931;42.260;23.116;2023-05-29T04:52:25;27.17;;;5.90;;
7773;SDS011;3931;42.260;23.116;2023-05-29T04:54:51;19.63;;;5.20;;
7773;SDS011;3931;42.260;23.116;2023-05-29T04:57:17;15.00;;;6.00;;
7773;SDS011;3931;42.260;23.116;2023-05-29T04:59:43;19.23;;;4.90;;
7773;SDS011;3931;42.260;23.116;2023-05-29T05:02:10;11.50;;;4.90;;
7773;SDS011;3931;42.260;23.116;2023-05-29T05:04:36;10.40;;;6.17;;
7773;SDS011;3931;42.260;23.116;2023-05-29T05:07:02;26.60;;;6.27;;
7773;SDS011;3931;42.260;23.116;2023-05-29T05:09:29;21.17;;;6.20;;
7773;SDS011;3931;42.260;23.116;2023-05-29T05:11:56;10.10;;;5.60;;
7773;SDS011;3931;42.260;23.116;2023-05-29T05:14:22;6.77;;;5.07;;
7773;SDS011;3931;42.260;23.116;2023-05-29T05:16:48;8.83;;;4.73;;
7773;SDS011;3931;42.260;23.116;2023-05-29T05:19:14;12.70;;;7.63;;
7773;SDS011;3931;42.260;23.116;2023-05-29T05:21:40;8.50;;;6.57;;
7773;SDS011;3931;42.260;23.116;2023-05-29T05:24:06;14.37;;;5.70;;
7773;SDS011;3931;42.260;23.116;2023-05-29T05:26:33;23.73;;;5.90;;
7773;SDS011;3931;42.260;23.116;2023-05-29T05:28:59;15.63;;;5.83;;
7773;SDS011;3931;42.260;23.116;2023-05-29T05:31:26;12.00;;;5.03;;
7773;SDS011;3931;42.260;23.116;2023-05-29T05:33:52;17.90;;;5.60;;
7773;SDS011;3931;42.260;23.116;2023-05-29T05:36:18;8.90;;;4.70;;
7773;SDS011;3931;42.260;23.116;2023-05-29T05:38:45;10.40;;;4.20;;
7773;SDS011;3931;42.260;23.116;2023-05-29T05:41:11;9.17;;;5.70;;
7773;SDS011;3931;42.260;23.116;2023-05-29T05:43:38;10.10;;;4.93;;
7773;SDS011;3931;42.260;23.116;2023-05-29T05:46:04;10.10;;;5.47;;
7773;SDS011;3931;42.260;23.116;2023-05-29T05:48:30;19.73;;;5.90;;
7773;SDS011;3931;42.260;23.116;2023-05-29T05:50:56;12.13;;;5.33;;
7773;SDS011;3931;42.260;23.116;2023-05-29T05:53:22;18.90;;;4.90;;
7773;SDS011;3931;42.260;23.116;2023-05-29T05:55:48;8.17;;;4.37;;
7773;SDS011;3931;42.260;23.116;2023-05-29T05:58:14;11.77;;;5.10;;
7773;SDS011;3931;42.260;23.116;2023-05-29T06:00:41;7.50;;;4.00;;
7773;SDS011;3931;42.260;23.116;2023-05-29T06:03:07;10.70;;;5.37;;
7773;SDS011;3931;42.260;23.116;2023-05-29T06:05:33;8.00;;;4.70;;
7773;SDS011;3931;42.260;23.116;2023-05-29T06:08:01;16.87;;;5.23;;
7773;SDS011;3931;42.260;23.116;2023-05-29T06:10:27;58.63;;;7.10;;
7773;SDS011;3931;42.260;23.116;2023-05-29T06:12:53;7.03;;;3.97;;
7773;SDS011;3931;42.260;23.116;2023-05-29T06:15:19;5.53;;;3.90;;
7773;SDS011;3931;42.260;23.116;2023-05-29T06:17:46;8.90;;;3.70;;
7773;SDS011;3931;42.260;23.116;2023-05-29T06:20:12;18.30;;;3.90;;
7773;SDS011;3931;42.260;23.116;2023-05-29T06:22:38;6.37;;;3.43;;
7773;SDS011;3931;42.260;23.116;2023-05-29T06:25:05;7.17;;;3.33;;
7773;SDS011;3931;42.260;23.116;2023-05-29T06:27:31;9.63;;;4.17;;
7773;SDS011;3931;42.260;23.116;2023-05-29T06:29:57;7.50;;;4.10;;
7773;SDS011;3931;42.260;23.116;2023-05-29T06:32:23;4.63;;;2.97;;
7773;SDS011;3931;42.260;23.116;2023-05-29T06:34:50;8.30;;;3.80;;
7773;SDS011;3931;42.260;23.116;2023-05-29T06:37:16;6.70;;;3.93;;
7773;SDS011;3931;42.260;23.116;2023-05-29T06:39:44;14.73;;;4.13;;
7773;SDS011;3931;42.260;23.116;2023-05-29T06:42:10;6.23;;;3.77;;
7773;SDS011;3931;42.260;23.116;2023-05-29T06:44:36;10.63;;;3.60;;
7773;SDS011;3931;42.260;23.116;2023-05-29T06:47:02;6.10;;;3.57;;
7773;SDS011;3931;42.260;23.116;2023-05-29T06:49:28;8.53;;;3.70;;
7773;SDS011;3931;42.260;23.116;2023-05-29T06:51:55;6.63;;;3.77;;
7773;SDS011;3931;42.260;23.116;2023-05-29T06:54:21;5.80;;;3.50;;
7773;SDS011;3931;42.260;23.116;2023-05-29T06:56:47;8.20;;;3.60;;
7773;SDS011;3931;42.260;23.116;2023-05-29T06:59:13;8.87;;;3.50;;
7773;SDS011;3931;42.260;23.116;2023-05-29T07:01:39;6.10;;;3.00;;
7773;SDS011;3931;42.260;23.116;2023-05-29T07:04:05;7.73;;;3.03;;
7773;SDS011;3931;42.260;23.116;2023-05-29T07:06:32;5.23;;;3.00;;
7773;SDS011;3931;42.260;23.116;2023-05-29T07:08:59;10.30;;;3.40;;
7773;SDS011;3931;42.260;23.116;2023-05-29T07:11:25;5.83;;;3.60;;
7773;SDS011;3931;42.260;23.116;2023-05-29T07:13:52;9.30;;;3.60;;
7773;SDS011;3931;42.260;23.116;2023-05-29T07:16:19;3.53;;;2.80;;
7773;SDS011;3931;42.260;23.116;2023-05-29T07:18:45;6.70;;;3.20;;
7773;SDS011;3931;42.260;23.116;2023-05-29T07:21:11;5.43;;;3.27;;
7773;SDS011;3931;42.260;23.116;2023-05-29T07:23:37;11.80;;;2.87;;
7773;SDS011;3931;42.260;23.116;2023-05-29T07:26:05;3.97;;;2.63;;
7773;SDS011;3931;42.260;23.116;2023-05-29T07:28:31;5.57;;;3.00;;
7773;SDS011;3931;42.260;23.116;2023-05-29T07:30:57;8.37;;;3.83;;
7773;SDS011;3931;42.260;23.116;2023-05-29T07:33:23;3.60;;;2.40;;
7773;SDS011;3931;42.260;23.116;2023-05-29T07:35:49;2.53;;;2.10;;
7773;SDS011;3931;42.260;23.116;2023-05-29T07:38:15;12.80;;;2.97;;
7773;SDS011;3931;42.260;23.116;2023-05-29T07:40:41;6.33;;;2.60;;
7773;SDS011;3931;42.260;23.116;2023-05-29T07:43:08;6.93;;;3.07;;
7773;SDS011;3931;42.260;23.116;2023-05-29T07:45:34;6.43;;;2.43;;
7773;SDS011;3931;42.260;23.116;2023-05-29T07:48:00;4.67;;;2.53;;
7773;SDS011;3931;42.260;23.116;2023-05-29T07:50:26;9.63;;;3.23;;
7773;SDS011;3931;42.260;23.116;2023-05-29T07:52:52;5.60;;;2.33;;
7773;SDS011;3931;42.260;23.116;2023-05-29T07:55:21;7.63;;;3.07;;
7773;SDS011;3931;42.260;23.116;2023-05-29T07:57:47;4.83;;;2.77;;
7773;SDS011;3931;42.260;23.116;2023-05-29T08:00:14;4.80;;;2.80;;
7773;SDS011;3931;42.260;23.116;2023-05-29T08:02:42;3.63;;;2.40;;
7773;SDS011;3931;42.260;23.116;2023-05-29T08:05:08;7.77;;;2.57;;
7773;SDS011;3931;42.260;23.116;2023-05-29T08:07:34;11.50;;;2.80;;
7773;SDS011;3931;42.260;23.116;2023-05-29T08:10:00;4.10;;;2.50;;
7773;SDS011;3931;42.260;23.116;2023-05-29T08:12:26;6.97;;;2.90;;
7773;SDS011;3931;42.260;23.116;2023-05-29T08:14:53;15.90;;;2.60;;
7773;SDS011;3931;42.260;23.116;2023-05-29T08:17:19;10.80;;;2.97;;
7773;SDS011;3931;42.260;23.116;2023-05-29T08:19:46;9.10;;;2.90;;
7773;SDS011;3931;42.260;23.116;2023-05-29T08:22:12;5.53;;;2.77;;
7773;SDS011;3931;42.260;23.116;2023-05-29T08:24:40;3.23;;;2.53;;
7773;SDS011;3931;42.260;23.116;2023-05-29T08:27:06;6.77;;;2.73;;
7773;SDS011;3931;42.260;23.116;2023-05-29T08:29:32;7.83;;;2.57;;
7773;SDS011;3931;42.260;23.116;2023-05-29T08:31:58;7.83;;;2.70;;
7773;SDS011;3931;42.260;23.116;2023-05-29T08:34:25;3.67;;;2.53;;
7773;SDS011;3931;42.260;23.116;2023-05-29T08:36:51;6.90;;;3.07;;
7773;SDS011;3931;42.260;23.116;2023-05-29T08:39:20;8.73;;;2.77;;
7773;SDS011;3931;42.260;23.116;2023-05-29T08:41:49;5.03;;;2.60;;
7773;SDS011;3931;42.260;23.116;2023-05-29T08:44:21;6.70;;;2.43;;
7773;SDS011;3931;42.260;23.116;2023-05-29T08:46:49;4.10;;;2.23;;
7773;SDS011;3931;42.260;23.116;2023-05-29T08:49:19;17.87;;;2.30;;
7773;SDS011;3931;42.260;23.116;2023-05-29T08:51:48;9.77;;;2.80;;
7773;SDS011;3931;42.260;23.116;2023-05-29T08:54:19;5.63;;;2.37;;
7773;SDS011;3931;42.260;23.116;2023-05-29T08:56:46;4.67;;;2.27;;
7773;SDS011;3931;42.260;23.116;2023-05-29T08:59:12;8.47;;;2.90;;
7773;SDS011;3931;42.260;23.116;2023-05-29T09:01:38;6.50;;;3.00;;
7773;SDS011;3931;42.260;23.116;2023-05-29T09:04:05;6.20;;;2.60;;
7773;SDS011;3931;42.260;23.116;2023-05-29T09:06:33;9.13;;;2.87;;
7773;SDS011;3931;42.260;23.116;2023-05-29T09:09:00;4.73;;;2.87;;
7773;SDS011;3931;42.260;23.116;2023-05-29T09:11:26;6.03;;;2.73;;
7773;SDS011;3931;42.260;23.116;2023-05-29T09:13:52;6.50;;;2.50;;
7773;SDS011;3931;42.260;23.116;2023-05-29T09:16:18;5.67;;;2.50;;
7773;SDS011;3931;42.260;23.116;2023-05-29T09:18:45;5.83;;;2.40;;
7773;SDS011;3931;42.260;23.116;2023-05-29T09:21:15;4.33;;;2.70;;
7773;SDS011;3931;42.260;23.116;2023-05-29T09:23:51;5.33;;;2.80;;
7773;SDS011;3931;42.260;23.116;2023-05-29T09:26:18;5.53;;;2.70;;
7773;SDS011;3931;42.260;23.116;2023-05-29T09:28:47;5.57;;;2.53;;
7773;SDS011;3931;42.260;23.116;2023-05-29T09:31:13;4.77;;;2.57;;
7773;SDS011;3931;42.260;23.116;2023-05-29T09:33:46;4.77;;;2.70;;
7773;SDS011;3931;42.260;23.116;2023-05-29T09:36:18;5.30;;;2.67;;
7773;SDS011;3931;42.260;23.116;2023-05-29T09:38:46;7.50;;;2.60;;
7773;SDS011;3931;42.260;23.116;2023-05-29T09:41:13;3.60;;;2.20;;
7773;SDS011;3931;42.260;23.116;2023-05-29T09:43:40;5.80;;;2.57;;
7773;SDS011;3931;42.260;23.116;2023-05-29T09:46:12;8.37;;;2.70;;
7773;SDS011;3931;42.260;23.116;2023-05-29T09:48:41;6.17;;;2.47;;
7773;SDS011;3931;42.260;23.116;2023-05-29T09:51:08;12.40;;;2.80;;
7773;SDS011;3931;42.260;23.116;2023-05-29T09:53:45;8.33;;;2.53;;
7773;SDS011;3931;42.260;23.116;2023-05-29T09:56:11;4.03;;;2.57;;
7773;SDS011;3931;42.260;23.116;2023-05-29T09:58:41;10.37;;;3.00;;
7773;SDS011;3931;42.260;23.116;2023-05-29T10:01:11;4.87;;;2.87;;
7773;SDS011;3931;42.260;23.116;2023-05-29T10:03:38;8.53;;;3.03;;
7773;SDS011;3931;42.260;23.116;2023-05-29T10:06:04;5.73;;;3.50;;
7773;SDS011;3931;42.260;23.116;2023-05-29T10:08:34;20.63;;;2.83;;
7773;SDS011;3931;42.260;23.116;2023-05-29T10:11:03;12.43;;;2.80;;
7773;SDS011;3931;42.260;23.116;2023-05-29T10:13:35;7.10;;;3.00;;
7773;SDS011;3931;42.260;23.116;2023-05-29T10:16:06;5.43;;;2.27;;
7773;SDS011;3931;42.260;23.116;2023-05-29T10:18:35;7.60;;;2.60;;
7773;SDS011;3931;42.260;23.116;2023-05-29T10:21:03;9.47;;;2.70;;
7773;SDS011;3931;42.260;23.116;2023-05-29T10:23:32;6.10;;;2.10;;
7773;SDS011;3931;42.260;23.116;2023-05-29T10:26:02;15.00;;;3.70;;
7773;SDS011;3931;42.260;23.116;2023-05-29T10:28:36;12.17;;;3.27;;
7773;SDS011;3931;42.260;23.116;2023-05-29T10:31:08;8.30;;;2.80;;
7773;SDS011;3931;42.260;23.116;2023-05-29T10:33:43;8.03;;;2.47;;
7773;SDS011;3931;42.260;23.116;2023-05-29T10:36:22;6.33;;;2.70;;
7773;SDS011;3931;42.260;23.116;2023-05-29T10:38:53;5.67;;;2.40;;
7773;SDS011;3931;42.260;23.116;2023-05-29T10:41:28;20.77;;;3.57;;
7773;SDS011;3931;42.260;23.116;2023-05-29T10:43:55;24.53;;;3.83;;
7773;SDS011;3931;42.260;23.116;2023-05-29T10:46:26;8.27;;;2.70;;
7773;SDS011;3931;42.260;23.116;2023-05-29T10:49:28;4.37;;;2.57;;
7773;SDS011;3931;42.260;23.116;2023-05-29T10:51:55;8.33;;;2.70;;
7773;SDS011;3931;42.260;23.116;2023-05-29T10:54:24;11.53;;;2.90;;
7773;SDS011;3931;42.260;23.116;2023-05-29T10:56:52;8.97;;;3.50;;
7773;SDS011;3931;42.260;23.116;2023-05-29T10:59:18;16.23;;;2.50;;
7773;SDS011;3931;42.260;23.116;2023-05-29T11:01:45;4.47;;;2.37;;
7773;SDS011;3931;42.260;23.116;2023-05-29T11:04:27;3.77;;;2.10;;
7773;SDS011;3931;42.260;23.116;2023-05-29T11:06:56;20.90;;;7.60;;
7773;SDS011;3931;42.260;23.116;2023-05-29T11:09:26;7.73;;;4.00;;
7773;SDS011;3931;42.260;23.116;2023-05-29T11:14:44;10.70;;;2.20;;
7773;SDS011;3931;42.260;23.116;2023-05-29T11:20:08;7.83;;;2.50;;
7773;SDS011;3931;42.260;23.116;2023-05-29T11:22:55;4.83;;;2.20;;
7773;SDS011;3931;42.260;23.116;2023-05-29T11:25:27;8.30;;;1.90;;
7773;SDS011;3931;42.260;23.116;2023-05-29T11:27:53;4.40;;;2.33;;
7773;SDS011;3931;42.260;23.116;2023-05-29T11:30:19;21.77;;;13.53;;
7773;SDS011;3931;42.260;23.116;2023-05-29T11:32:46;20.20;;;11.33;;
7773;SDS011;3931;42.260;23.116;2023-05-29T11:35:14;5.27;;;2.60;;
7773;SDS011;3931;42.260;23.116;2023-05-29T11:37:40;6.60;;;3.10;;
7773;SDS011;3931;42.260;23.116;2023-05-29T11:40:08;4.43;;;3.37;;
7773;SDS011;3931;42.260;23.116;2023-05-29T11:42:37;3.80;;;2.10;;
7773;SDS011;3931;42.260;23.116;2023-05-29T11:45:10;4.33;;;2.20;;
7773;SDS011;3931;42.260;23.116;2023-05-29T11:47:50;3.47;;;2.10;;
7773;SDS011;3931;42.260;23.116;2023-05-29T11:50:20;3.80;;;2.43;;
7773;SDS011;3931;42.260;23.116;2023-05-29T11:52:47;3.90;;;3.07;;
7773;SDS011;3931;42.260;23.116;2023-05-29T11:55:14;6.00;;;3.87;;
7773;SDS011;3931;42.260;23.116;2023-05-29T11:57:40;9.30;;;6.37;;
7773;SDS011;3931;42.260;23.116;2023-05-29T12:00:07;13.13;;;8.37;;
7773;SDS011;3931;42.260;23.116;2023-05-29T12:02:38;5.13;;;3.10;;
7773;SDS011;3931;42.260;23.116;2023-05-29T12:05:04;8.50;;;3.80;;
7773;SDS011;3931;42.260;23.116;2023-05-29T12:07:33;8.43;;;3.07;;
7773;SDS011;3931;42.260;23.116;2023-05-29T12:10:08;6.33;;;2.30;;
7773;SDS011;3931;42.260;23.116;2023-05-29T12:12:35;3.67;;;2.20;;
7773;SDS011;3931;42.260;23.116;2023-05-29T12:15:01;5.83;;;2.10;;
7773;SDS011;3931;42.260;23.116;2023-05-29T12:17:30;3.97;;;2.60;;
7773;SDS011;3931;42.260;23.116;2023-05-29T12:19:57;8.47;;;2.50;;
7773;SDS011;3931;42.260;23.116;2023-05-29T12:22:30;5.40;;;2.37;;
7773;SDS011;3931;42.260;23.116;2023-05-29T12:25:03;7.03;;;2.23;;
7773;SDS011;3931;42.260;23.116;2023-05-29T12:27:31;3.90;;;2.20;;
7773;SDS011;3931;42.260;23.116;2023-05-29T12:29:59;6.30;;;2.40;;
7773;SDS011;3931;42.260;23.116;2023-05-29T12:32:33;2.40;;;2.13;;
7773;SDS011;3931;42.260;23.116;2023-05-29T12:35:00;3.60;;;2.20;;
7773;SDS011;3931;42.260;23.116;2023-05-29T12:37:29;11.20;;;2.23;;
7773;SDS011;3931;42.260;23.116;2023-05-29T12:40:14;4.90;;;2.17;;
7773;SDS011;3931;42.260;23.116;2023-05-29T12:42:41;5.80;;;2.03;;
7773;SDS011;3931;42.260;23.116;2023-05-29T12:45:08;8.43;;;2.50;;
7773;SDS011;3931;42.260;23.116;2023-05-29T12:47:35;4.43;;;2.20;;
7773;SDS011;3931;42.260;23.116;2023-05-29T12:50:04;16.27;;;3.03;;
7773;SDS011;3931;42.260;23.116;2023-05-29T12:52:40;11.80;;;3.10;;
7773;SDS011;3931;42.260;23.116;2023-05-29T12:55:07;3.90;;;1.80;;
7773;SDS011;3931;42.260;23.116;2023-05-29T12:57:34;5.30;;;2.37;;
7773;SDS011;3931;42.260;23.116;2023-05-29T13:00:00;7.30;;;2.13;;
7773;SDS011;3931;42.260;23.116;2023-05-29T13:02:27;8.10;;;1.90;;
7773;SDS011;3931;42.260;23.116;2023-05-29T13:04:54;11.43;;;2.20;;
7773;SDS011;3931;42.260;23.116;2023-05-29T13:07:20;3.30;;;2.10;;
7773;SDS011;3931;42.260;23.116;2023-05-29T13:09:46;8.00;;;2.20;;
7773;SDS011;3931;42.260;23.116;2023-05-29T13:12:12;9.53;;;2.13;;
7773;SDS011;3931;42.260;23.116;2023-05-29T13:14:39;3.53;;;1.80;;
7773;SDS011;3931;42.260;23.116;2023-05-29T13:17:05;4.80;;;2.63;;
7773;SDS011;3931;42.260;23.116;2023-05-29T13:19:32;3.50;;;2.20;;
7773;SDS011;3931;42.260;23.116;2023-05-29T13:21:58;3.80;;;2.10;;
7773;SDS011;3931;42.260;23.116;2023-05-29T13:24:24;7.83;;;2.60;;
7773;SDS011;3931;42.260;23.116;2023-05-29T13:26:50;12.17;;;6.50;;
7773;SDS011;3931;42.260;23.116;2023-05-29T13:29:16;7.93;;;2.37;;
7773;SDS011;3931;42.260;23.116;2023-05-29T13:31:43;6.20;;;1.87;;
7773;SDS011;3931;42.260;23.116;2023-05-29T13:34:09;7.03;;;1.80;;
7773;SDS011;3931;42.260;23.116;2023-05-29T13:36:35;4.00;;;2.10;;
7773;SDS011;3931;42.260;23.116;2023-05-29T13:39:02;3.93;;;2.20;;
7773;SDS011;3931;42.260;23.116;2023-05-29T13:41:29;3.70;;;2.47;;
7773;SDS011;3931;42.260;23.116;2023-05-29T13:43:56;4.33;;;2.77;;
7773;SDS011;3931;42.260;23.116;2023-05-29T13:46:22;4.20;;;2.40;;
7773;SDS011;3931;42.260;23.116;2023-05-29T13:48:49;5.37;;;2.87;;
7773;SDS011;3931;42.260;23.116;2023-05-29T13:51:15;7.20;;;2.93;;
7773;SDS011;3931;42.260;23.116;2023-05-29T13:53:41;11.77;;;2.50;;
7773;SDS011;3931;42.260;23.116;2023-05-29T13:56:07;7.10;;;2.50;;
7773;SDS011;3931;42.260;23.116;2023-05-29T13:58:33;5.70;;;2.00;;
7773;SDS011;3931;42.260;23.116;2023-05-29T14:00:59;7.47;;;2.80;;
7773;SDS011;3931;42.260;23.116;2023-05-29T14:03:25;5.83;;;2.83;;
7773;SDS011;3931;42.260;23.116;2023-05-29T14:05:54;16.60;;;2.70;;
7773;SDS011;3931;42.260;23.116;2023-05-29T14:08:20;10.33;;;3.00;;
7773;SDS011;3931;42.260;23.116;2023-05-29T14:10:46;4.60;;;2.20;;
7773;SDS011;3931;42.260;23.116;2023-05-29T14:13:12;11.10;;;2.83;;
7773;SDS011;3931;42.260;23.116;2023-05-29T14:15:38;6.10;;;2.30;;
7773;SDS011;3931;42.260;23.116;2023-05-29T14:18:04;13.13;;;2.73;;
7773;SDS011;3931;42.260;23.116;2023-05-29T14:20:31;6.23;;;2.43;;
7773;SDS011;3931;42.260;23.116;2023-05-29T14:22:58;10.07;;;2.30;;
7773;SDS011;3931;42.260;23.116;2023-05-29T14:25:24;69.03;;;5.37;;
7773;SDS011;3931;42.260;23.116;2023-05-29T14:27:50;10.53;;;3.10;;
7773;SDS011;3931;42.260;23.116;2023-05-29T14:30:17;4.30;;;2.07;;
7773;SDS011;3931;42.260;23.116;2023-05-29T14:32:43;6.10;;;2.70;;
7773;SDS011;3931;42.260;23.116;2023-05-29T14:35:09;8.97;;;2.37;;
7773;SDS011;3931;42.260;23.116;2023-05-29T14:37:35;15.87;;;2.73;;
7773;SDS011;3931;42.260;23.116;2023-05-29T14:40:03;3.63;;;2.27;;
7773;SDS011;3931;42.260;23.116;2023-05-29T14:42:30;7.33;;;2.00;;
7773;SDS011;3931;42.260;23.116;2023-05-29T14:44:58;4.30;;;2.30;;
7773;SDS011;3931;42.260;23.116;2023-05-29T14:47:25;4.70;;;1.57;;
7773;SDS011;3931;42.260;23.116;2023-05-29T14:49:51;4.90;;;1.53;;
7773;SDS011;3931;42.260;23.116;2023-05-29T14:52:17;4.43;;;1.67;;
7773;SDS011;3931;42.260;23.116;2023-05-29T14:54:43;3.50;;;1.63;;
7773;SDS011;3931;42.260;23.116;2023-05-29T14:57:10;4.40;;;1.50;;
7773;SDS011;3931;42.260;23.116;2023-05-29T14:59:36;5.83;;;2.03;;
7773;SDS011;3931;42.260;23.116;2023-05-29T15:02:02;1.60;;;1.30;;
7773;SDS011;3931;42.260;23.116;2023-05-29T15:04:28;3.13;;;1.50;;